East Liberty, Pennsylvania
Current Conditions -  °F | °C
As of 10:53 PM on Monday 20 Oct 2014 (Local Time) from KAGC Reporting Station
Light Rain Light Rain  
Wind Chill: 11°   Ceiling: 5500
Heat Index: 11°   Visibility: 8mi
Dew Point:   Wind: 9mph
Humidity: 74%   Direction: 200°SSW
Pressure: 29.88"   Gusts: NA
Location:  40.4715°N, 79.9138°W
Report Text: KAGC 210253Z AUTO 20008KT 8SM -RA OVC055 11/06 A2988 RMK AO2 RAB32 SLP125 P0001 60001 T01060061 58002 TSNO
Loading
Personal Weather Stations






























Interactive Weather Map
Tropical Storm Tracking
New forecast layout! Learn more

10-Day Weather Forecast

Advertisements
Track Severe Weather on mobile